Time;durP1;ratioP1;P1;durP2;ratioP2;P2;SDS_P1;SDS_P2;PMS_P1;PMS_P2;Temp;Humidity;BMP_temperature;BMP_pressure;BME280_temperature;BME280_humidity;BME280_pressure;Samples;Min_cycle;Max_cycle;Signal;HPM_P1;HPM_P2
2023/06/01 00:01:37;;;;;;;2.63;1.90;;;19.10;54.10;;;;;;5087462;28;20017;-56
2023/06/01 00:04:03;;;;;;;3.35;2.00;;;19.10;54.30;;;;;;5081659;28;20036;-56
2023/06/01 00:06:30;;;;;;;4.07;2.30;;;19.20;54.70;;;;;;5082175;28;20383;-55
2023/06/01 00:08:57;;;;;;;2.10;1.90;;;19.20;54.70;;;;;;5084344;28;20025;-53
2023/06/01 00:11:23;;;;;;;2.47;2.10;;;19.20;54.70;;;;;;5085333;28;20090;-58
2023/06/01 00:13:49;;;;;;;3.65;2.25;;;19.10;54.60;;;;;;5081955;28;20017;-57
2023/06/01 00:16:16;;;;;;;3.72;2.22;;;19.10;54.70;;;;;;5082943;28;20021;-57
2023/06/01 00:18:41;;;;;;;3.50;2.15;;;19.10;54.60;;;;;;5083111;28;20031;-57
2023/06/01 00:21:07;;;;;;;3.08;2.10;;;19.10;54.30;;;;;;5081323;28;20040;-57
2023/06/01 00:23:33;;;;;;;3.60;2.30;;;19.10;54.30;;;;;;5086070;28;20051;-57
2023/06/01 00:25:59;;;;;;;2.30;2.10;;;19.10;54.40;;;;;;5082772;28;20059;-55
2023/06/01 00:28:25;;;;;;;2.67;2.45;;;19.10;54.60;;;;;;5084327;28;20056;-54
2023/06/01 00:30:52;;;;;;;2.45;2.08;;;19.00;54.80;;;;;;5079081;28;22085;-55
2023/06/01 00:33:21;;;;;;;4.25;2.20;;;19.00;55.00;;;;;;5083415;28;20044;-55
2023/06/01 00:35:47;;;;;;;3.58;2.15;;;18.90;55.10;;;;;;5082394;28;20017;-56
2023/06/01 00:38:13;;;;;;;3.58;2.42;;;18.90;55.40;;;;;;5082261;28;20050;-56
2023/06/01 00:40:39;;;;;;;3.58;2.40;;;18.80;55.50;;;;;;5087639;28;20391;-56
2023/06/01 00:43:04;;;;;;;3.25;2.38;;;18.80;55.60;;;;;;5083807;28;20191;-56
2023/06/01 00:45:30;;;;;;;3.28;2.28;;;18.70;55.80;;;;;;5080313;28;20040;-55
2023/06/01 00:47:56;;;;;;;4.45;2.30;;;18.70;56.20;;;;;;5082414;28;20085;-58
2023/06/01 00:50:22;;;;;;;4.32;2.45;;;18.70;56.10;;;;;;5080904;28;20037;-53
2023/06/01 00:52:51;;;;;;;3.45;2.85;;;18.60;57.00;;;;;;5079164;28;20391;-54
2023/06/01 00:55:20;;;;;;;3.63;2.08;;;18.60;56.60;;;;;;5084539;28;20051;-54
2023/06/01 00:57:46;;;;;;;2.58;2.15;;;18.50;57.00;;;;;;5081988;28;20031;-56
2023/06/01 01:00:13;;;;;;;5.43;2.40;;;18.50;57.50;;;;;;5084958;28;20039;-57
2023/06/01 01:02:44;;;;;;;3.80;3.20;;;18.50;57.80;;;;;;5084617;28;20024;-57
2023/06/01 01:05:10;;;;;;;;;;;18.40;57.90;;;;;;5081775;28;20031;-56
2023/06/01 01:07:50;;;;;;;2.83;2.53;;;18.30;57.50;;;;;;5082819;28;21190;-55
2023/06/01 01:10:16;;;;;;;4.43;2.72;;;18.30;57.60;;;;;;5079520;28;20024;-55
2023/06/01 01:12:51;;;;;;;4.65;2.63;;;18.30;57.60;;;;;;5088517;28;20027;-56
2023/06/01 01:15:37;;;;;;;4.03;2.67;;;18.20;57.60;;;;;;5083379;28;20109;-55
2023/06/01 01:18:07;;;;;;;3.10;2.42;;;18.20;57.70;;;;;;5084607;28;20452;-57
2023/06/01 01:20:43;;;;;;;3.17;2.17;;;18.10;57.80;;;;;;5083182;28;20107;-57
2023/06/01 01:23:18;;;;;;;4.55;2.88;;;18.10;57.70;;;;;;5085538;28;20057;-51
2023/06/01 01:25:49;;;;;;;4.32;2.88;;;18.10;57.70;;;;;;5080762;28;20053;-56
2023/06/01 01:28:33;;;;;;;;;;;18.00;57.40;;;;;;5082446;28;20028;-56
2023/06/01 01:31:01;;;;;;;3.67;2.75;;;17.90;57.30;;;;;;5079063;28;20386;-58
2023/06/01 01:33:28;;;;;;;4.13;2.60;;;17.90;58.00;;;;;;5084615;28;20369;-57
2023/06/01 01:35:55;;;;;;;4.03;2.55;;;17.90;57.30;;;;;;5077807;28;20028;-55
2023/06/01 01:38:20;;;;;;;3.75;2.45;;;17.90;57.50;;;;;;5083098;28;20039;-58
2023/06/01 01:40:46;;;;;;;3.42;2.50;;;17.80;57.60;;;;;;5084098;28;20040;-52
2023/06/01 01:43:12;;;;;;;3.08;2.42;;;17.80;57.70;;;;;;5074452;28;20399;-56
2023/06/01 01:45:38;;;;;;;3.13;2.72;;;17.70;57.50;;;;;;5078498;28;20130;-55
2023/06/01 01:48:22;;;;;;;5.07;2.95;;;17.70;57.60;;;;;;5082225;28;20368;-59
2023/06/01 01:50:58;;;;;;;3.63;2.70;;;17.70;57.70;;;;;;5083372;28;20032;-54
2023/06/01 01:53:26;;;;;;;4.07;2.80;;;17.70;57.90;;;;;;5072695;28;20024;-55
2023/06/01 01:55:53;;;;;;;3.25;2.70;;;17.60;58.30;;;;;;5078905;28;20024;-52
2023/06/01 01:58:19;;;;;;;5.75;2.75;;;17.60;58.50;;;;;;5076760;28;20024;-57
2023/06/01 02:00:46;;;;;;;3.53;2.70;;;17.60;58.60;;;;;;5083541;28;20031;-57
2023/06/01 02:03:16;;;;;;;6.07;2.92;;;17.60;58.60;;;;;;5085561;28;20020;-57
2023/06/01 02:05:42;;;;;;;5.68;2.92;;;17.60;58.60;;;;;;5088212;28;20024;-55
2023/06/01 02:08:08;;;;;;;4.43;2.83;;;17.60;58.80;;;;;;5078792;28;20131;-56
2023/06/01 02:10:33;;;;;;;6.82;2.90;;;17.60;59.00;;;;;;5074329;28;20033;-58
2023/06/01 02:12:59;;;;;;;3.88;2.63;;;17.60;59.10;;;;;;5076045;28;20480;-57
2023/06/01 02:15:25;;;;;;;3.78;2.70;;;17.60;59.30;;;;;;5081569;28;20038;-57
2023/06/01 02:17:51;;;;;;;4.57;3.00;;;17.60;59.30;;;;;;5080053;28;20087;-59
2023/06/01 02:20:17;;;;;;;3.70;2.97;;;17.60;59.10;;;;;;5078530;28;20123;-60
2023/06/01 02:22:43;;;;;;;3.63;2.67;;;17.60;59.10;;;;;;5082819;28;20027;-58
2023/06/01 02:25:09;;;;;;;3.25;2.75;;;17.60;58.90;;;;;;5085829;28;20027;-59
2023/06/01 02:27:34;;;;;;;3.70;2.78;;;17.60;58.90;;;;;;5079628;28;20403;-57
2023/06/01 02:30:00;;;;;;;3.92;2.60;;;17.60;59.20;;;;;;5081726;28;20035;-56
2023/06/01 02:32:26;;;;;;;4.05;2.88;;;17.60;59.20;;;;;;5078713;28;20086;-56
2023/06/01 02:34:52;;;;;;;3.95;2.65;;;17.60;59.40;;;;;;5084639;28;20061;-56
2023/06/01 02:37:17;;;;;;;7.93;3.05;;;17.60;59.50;;;;;;5074510;28;20430;-57
2023/06/01 02:39:43;;;;;;;4.47;3.08;;;17.60;59.50;;;;;;5082575;28;20382;-54
2023/06/01 02:42:09;;;;;;;5.38;2.90;;;17.70;59.70;;;;;;5082621;28;20052;-57
2023/06/01 02:44:34;;;;;;;5.93;3.42;;;17.70;59.90;;;;;;5082517;28;20089;-58
2023/06/01 02:47:00;;;;;;;3.20;2.60;;;17.70;59.80;;;;;;5077001;28;20557;-55
2023/06/01 02:49:26;;;;;;;3.42;2.50;;;17.70;59.80;;;;;;5080697;28;20032;-58
2023/06/01 02:51:51;;;;;;;6.03;2.95;;;17.80;59.70;;;;;;5082512;28;20424;-58
2023/06/01 02:54:17;;;;;;;5.00;2.92;;;17.80;59.50;;;;;;5080665;28;20115;-56
2023/06/01 02:56:43;;;;;;;5.05;3.20;;;17.80;59.50;;;;;;5077121;28;20029;-55
2023/06/01 02:59:08;;;;;;;4.97;2.95;;;17.90;59.60;;;;;;5082935;28;20028;-55
2023/06/01 03:01:35;;;;;;;4.18;2.92;;;17.90;59.40;;;;;;5080704;28;20027;-54
2023/06/01 03:04:04;;;;;;;3.45;3.00;;;17.90;59.20;;;;;;5086751;28;20027;-57
2023/06/01 03:06:37;;;;;;;4.07;2.97;;;17.90;59.00;;;;;;5082840;28;20024;-57
2023/06/01 03:09:03;;;;;;;4.07;2.92;;;18.00;59.00;;;;;;5081939;28;20391;-57
2023/06/01 03:11:29;;;;;;;4.00;3.08;;;18.00;59.00;;;;;;5086398;28;20480;-57
2023/06/01 03:13:56;;;;;;;3.20;2.65;;;18.00;59.00;;;;;;5082898;28;20017;-58
2023/06/01 03:16:23;;;;;;;5.10;3.13;;;18.00;59.10;;;;;;5081751;28;20542;-54
2023/06/01 03:18:48;;;;;;;3.72;3.00;;;18.10;59.30;;;;;;5086137;28;20028;-51
2023/06/01 03:21:16;;;;;;;5.28;2.90;;;18.20;59.70;;;;;;5083172;28;20038;-57
2023/06/01 03:23:43;;;;;;;5.13;3.10;;;18.30;60.10;;;;;;5084853;28;20036;-57
2023/06/01 03:26:12;;;;;;;4.53;2.90;;;18.30;60.30;;;;;;5087504;28;20039;-57
2023/06/01 03:28:38;;;;;;;3.40;2.78;;;18.50;61.10;;;;;;5085852;28;20558;-58
2023/06/01 03:31:04;;;;;;;2.92;2.60;;;18.70;61.90;;;;;;5085240;28;20026;-58
2023/06/01 03:33:30;;;;;;;4.32;2.75;;;19.10;62.30;;;;;;5081745;28;20045;-57
2023/06/01 03:35:56;;;;;;;3.85;3.10;;;19.40;62.10;;;;;;5080195;28;20479;-58
2023/06/01 03:38:21;;;;;;;5.63;3.00;;;19.80;61.90;;;;;;5082829;28;20056;-56
2023/06/01 03:40:47;;;;;;;4.13;3.17;;;20.40;60.90;;;;;;5081485;28;20068;-54
2023/06/01 03:43:13;;;;;;;4.10;2.70;;;21.10;60.10;;;;;;5080608;28;20032;-58
2023/06/01 03:45:38;;;;;;;3.65;2.88;;;21.80;59.10;;;;;;5082014;28;20032;-52
2023/06/01 03:48:05;;;;;;;5.00;2.92;;;22.60;57.60;;;;;;5086017;28;20538;-53
2023/06/01 03:50:30;;;;;;;3.22;2.40;;;23.40;56.10;;;;;;5081576;28;20035;-54
2023/06/01 03:52:56;;;;;;;4.25;2.80;;;24.30;55.00;;;;;;5078686;28;20080;-58
2023/06/01 03:55:22;;;;;;;4.57;2.95;;;25.10;53.80;;;;;;5082258;28;20390;-59
2023/06/01 03:57:48;;;;;;;5.68;3.03;;;25.90;52.80;;;;;;5073886;28;20417;-56
2023/06/01 04:00:19;;;;;;;3.10;2.50;;;26.60;51.90;;;;;;5082229;28;20028;-56
2023/06/01 04:02:55;;;;;;;3.38;2.45;;;27.30;50.70;;;;;;5081448;28;20035;-55
2023/06/01 04:05:23;;;;;;;3.88;2.40;;;28.00;49.80;;;;;;5085472;28;20031;-58
2023/06/01 04:07:50;;;;;;;2.63;2.42;;;28.60;49.20;;;;;;5083548;28;20036;-56
2023/06/01 04:10:17;;;;;;;5.63;2.63;;;29.10;48.20;;;;;;5084628;28;20128;-57
2023/06/01 04:12:48;;;;;;;3.60;2.63;;;29.70;47.60;;;;;;5078049;28;20032;-55
2023/06/01 04:15:16;;;;;;;5.47;2.78;;;30.10;46.70;;;;;;5079680;28;20082;-57
2023/06/01 04:17:43;;;;;;;6.65;3.10;;;30.60;46.10;;;;;;5080123;28;20055;-56
2023/06/01 04:20:13;;;;;;;4.80;2.55;;;31.10;45.60;;;;;;5080376;28;20111;-57
2023/06/01 04:22:40;;;;;;;2.75;2.30;;;31.50;44.70;;;;;;5079026;28;20028;-58
2023/06/01 04:25:11;;;;;;;2.88;2.53;;;32.00;44.30;;;;;;5083479;28;20563;-56
2023/06/01 04:27:37;;;;;;;2.75;2.40;;;32.30;43.80;;;;;;5079273;28;20024;-57
2023/06/01 04:30:10;;;;;;;3.97;2.50;;;32.60;43.40;;;;;;5080962;28;20040;-55
2023/06/01 04:32:37;;;;;;;2.90;2.58;;;33.00;42.80;;;;;;5081304;28;20064;-55
2023/06/01 04:35:07;;;;;;;2.72;2.50;;;33.30;42.50;;;;;;5080510;28;20031;-54
2023/06/01 04:37:34;;;;;;;5.82;2.65;;;33.60;42.00;;;;;;5082801;28;20165;-58
2023/06/01 04:40:09;;;;;;;3.15;2.47;;;33.80;41.70;;;;;;5082762;28;20139;-55
2023/06/01 04:42:38;;;;;;;4.38;2.55;;;34.00;41.30;;;;;;5083429;28;20499;-55
2023/06/01 04:45:06;;;;;;;3.72;2.78;;;34.20;41.00;;;;;;5086467;28;20036;-56
2023/06/01 04:47:32;;;;;;;4.35;2.80;;;34.40;40.90;;;;;;5083771;28;20536;-56
2023/06/01 04:49:58;;;;;;;3.03;2.60;;;34.60;40.50;;;;;;5085267;28;20024;-57
2023/06/01 04:52:24;;;;;;;3.97;2.80;;;34.80;40.20;;;;;;5084892;28;20047;-56
2023/06/01 04:54:50;;;;;;;3.10;2.42;;;34.90;40.00;;;;;;5089350;28;20024;-57
2023/06/01 04:57:16;;;;;;;4.18;2.70;;;35.10;39.90;;;;;;5084521;28;20028;-58
2023/06/01 04:59:42;;;;;;;3.85;2.58;;;35.30;39.70;;;;;;5084231;28;20016;-57
2023/06/01 05:02:08;;;;;;;3.85;2.55;;;35.40;39.30;;;;;;5082767;28;20051;-57
2023/06/01 05:04:34;;;;;;;3.00;2.60;;;35.50;39.00;;;;;;5081061;28;20031;-56
2023/06/01 05:06:59;;;;;;;3.13;2.45;;;35.60;39.00;;;;;;5081835;28;20484;-58
2023/06/01 05:09:25;;;;;;;3.65;2.33;;;35.70;38.90;;;;;;5082110;28;20028;-54
2023/06/01 05:11:51;;;;;;;2.30;2.10;;;35.80;38.90;;;;;;5077958;28;20036;-53
2023/06/01 05:14:16;;;;;;;2.78;2.50;;;35.80;38.70;;;;;;5082480;28;20035;-58
2023/06/01 05:16:42;;;;;;;3.50;2.50;;;35.80;38.40;;;;;;5083628;28;20033;-54
2023/06/01 05:19:08;;;;;;;4.18;2.30;;;35.80;38.00;;;;;;5081680;28;20567;-57
2023/06/01 05:21:33;;;;;;;3.38;2.50;;;35.70;37.90;;;;;;5085533;28;20487;-57
2023/06/01 05:23:59;;;;;;;2.67;2.45;;;35.10;37.80;;;;;;5083080;28;20024;-56
2023/06/01 05:26:25;;;;;;;3.33;2.60;;;34.40;38.20;;;;;;5078754;28;20035;-52
2023/06/01 05:28:51;;;;;;;3.65;2.30;;;33.40;38.90;;;;;;5081168;28;20028;-56
2023/06/01 05:31:16;;;;;;;3.80;2.47;;;32.50;39.30;;;;;;5079854;28;20383;-55
2023/06/01 05:33:42;;;;;;;5.60;2.75;;;31.50;40.10;;;;;;5082109;28;20390;-57
2023/06/01 05:36:08;;;;;;;3.72;2.70;;;30.60;40.80;;;;;;5079471;28;20483;-55
2023/06/01 05:38:33;;;;;;;4.30;2.63;;;29.90;41.70;;;;;;5079936;28;20066;-56
2023/06/01 05:40:59;;;;;;;7.43;3.00;;;29.10;42.20;;;;;;5082188;28;20059;-56
2023/06/01 05:43:25;;;;;;;5.38;2.72;;;28.50;42.90;;;;;;5079662;28;20036;-56
2023/06/01 05:45:50;;;;;;;5.22;2.90;;;27.90;43.40;;;;;;5083751;28;20032;-55
2023/06/01 05:48:16;;;;;;;3.60;2.60;;;27.50;44.10;;;;;;5078738;28;20360;-56
2023/06/01 05:50:42;;;;;;;3.33;2.40;;;27.10;44.60;;;;;;5072770;28;20043;-54
2023/06/01 05:53:10;;;;;;;6.55;2.90;;;26.70;45.10;;;;;;5075890;28;20546;-52
2023/06/01 05:55:36;;;;;;;3.17;2.50;;;26.40;45.40;;;;;;5073125;28;21850;-55
2023/06/01 05:58:02;;;;;;;5.10;2.75;;;26.20;45.20;;;;;;5076413;28;20130;-55
2023/06/01 06:00:27;;;;;;;3.30;3.00;;;26.00;45.30;;;;;;5073334;28;20056;-57
2023/06/01 06:02:53;;;;;;;5.40;3.20;;;25.80;45.40;;;;;;5077576;28;20040;-54
2023/06/01 06:05:18;;;;;;;3.28;2.50;;;25.50;45.70;;;;;;5077395;28;20060;-57
2023/06/01 06:07:44;;;;;;;3.65;2.60;;;25.40;45.60;;;;;;5068947;28;20061;-53
2023/06/01 06:10:11;;;;;;;4.50;2.83;;;25.30;46.10;;;;;;5070536;28;20039;-55
2023/06/01 06:12:37;;;;;;;5.00;2.65;;;25.10;46.40;;;;;;5067671;28;20027;-57
2023/06/01 06:15:04;;;;;;;7.00;3.20;;;25.00;46.90;;;;;;5070397;28;20109;-51
2023/06/01 06:17:29;;;;;;;4.40;3.20;;;25.00;47.40;;;;;;5073543;28;20024;-57
2023/06/01 06:19:55;;;;;;;3.53;2.75;;;24.90;47.60;;;;;;5071990;28;20042;-57
2023/06/01 06:22:21;;;;;;;5.30;2.67;;;24.80;47.60;;;;;;5075156;28;20445;-56
2023/06/01 06:24:47;;;;;;;4.30;2.78;;;24.70;47.70;;;;;;5073540;28;20031;-55
2023/06/01 06:27:13;;;;;;;8.50;2.97;;;24.70;47.40;;;;;;5066317;28;20043;-53
2023/06/01 06:29:38;;;;;;;4.50;2.33;;;24.60;47.60;;;;;;5073019;28;20043;-54
2023/06/01 06:32:05;;;;;;;4.72;2.75;;;24.60;47.40;;;;;;5073444;28;20039;-52
2023/06/01 06:34:35;;;;;;;4.22;2.75;;;24.50;47.40;;;;;;5064506;28;20395;-54
2023/06/01 06:37:05;;;;;;;5.22;2.50;;;24.50;47.60;;;;;;5062171;28;21970;-56
2023/06/01 06:39:31;;;;;;;3.40;2.10;;;24.40;47.60;;;;;;5066135;28;20398;-52
2023/06/01 06:41:57;;;;;;;6.18;2.88;;;24.40;47.60;;;;;;5065109;28;20087;-54
2023/06/01 06:44:23;;;;;;;3.70;2.60;;;24.30;47.70;;;;;;5069138;28;20036;-57
2023/06/01 06:46:49;;;;;;;6.03;2.58;;;24.20;47.90;;;;;;5068094;28;20050;-53
2023/06/01 06:49:15;;;;;;;5.75;2.80;;;24.20;48.20;;;;;;5063677;28;20382;-55
2023/06/01 06:51:41;;;;;;;3.55;2.50;;;24.10;48.10;;;;;;5071624;28;20734;-56
2023/06/01 06:54:06;;;;;;;4.18;2.70;;;24.10;48.40;;;;;;5071319;28;20135;-52
2023/06/01 06:56:32;;;;;;;4.78;2.50;;;24.10;48.60;;;;;;5070614;28;20089;-54
2023/06/01 06:58:59;;;;;;;5.15;2.40;;;24.00;48.70;;;;;;5065238;28;20032;-54
2023/06/01 07:01:25;;;;;;;4.85;2.78;;;24.00;48.60;;;;;;5069252;28;20032;-55
2023/06/01 07:03:51;;;;;;;4.80;2.80;;;24.00;48.80;;;;;;5073120;28;20165;-53
2023/06/01 07:06:17;;;;;;;3.33;2.28;;;24.00;48.50;;;;;;5069995;28;20119;-57
2023/06/01 07:08:43;;;;;;;4.38;2.60;;;24.00;48.30;;;;;;5064811;28;20028;-48
2023/06/01 07:11:09;;;;;;;4.65;2.63;;;24.00;48.00;;;;;;5065569;28;20047;-52
2023/06/01 07:13:35;;;;;;;4.50;2.78;;;24.00;48.00;;;;;;5067843;28;20116;-56
2023/06/01 07:16:02;;;;;;;5.85;2.60;;;24.00;48.20;;;;;;5071473;28;20047;-55
2023/06/01 07:18:28;;;;;;;2.58;2.17;;;24.00;47.90;;;;;;5063070;28;20028;-54
2023/06/01 07:20:54;;;;;;;5.55;3.00;;;23.90;47.90;;;;;;5075419;28;20024;-53
2023/06/01 07:23:19;;;;;;;3.15;2.60;;;23.90;47.60;;;;;;5071813;28;20067;-53
2023/06/01 07:25:45;;;;;;;3.67;2.60;;;23.90;46.70;;;;;;5069427;28;20026;-53
2023/06/01 07:28:12;;;;;;;3.08;2.42;;;23.90;46.70;;;;;;5061097;28;20032;-51
2023/06/01 07:30:38;;;;;;;2.85;2.22;;;23.80;47.00;;;;;;5056716;28;20035;-53
2023/06/01 07:33:04;;;;;;;3.92;2.30;;;23.80;46.40;;;;;;5056462;28;20039;-53
2023/06/01 07:35:30;;;;;;;2.90;2.08;;;23.80;46.20;;;;;;5068583;28;20098;-51
2023/06/01 07:37:55;;;;;;;5.35;2.33;;;23.80;44.90;;;;;;5069908;28;20107;-55
2023/06/01 07:40:21;;;;;;;2.50;2.30;;;23.80;43.80;;;;;;5058743;28;20032;-56
2023/06/01 07:42:47;;;;;;;3.28;2.40;;;23.80;44.00;;;;;;5066907;28;20058;-53
2023/06/01 07:45:13;;;;;;;3.45;1.85;;;23.70;43.60;;;;;;5067687;28;20724;-55
2023/06/01 07:47:39;;;;;;;5.22;1.77;;;23.70;43.00;;;;;;5063626;28;20031;-55
2023/06/01 07:50:06;;;;;;;2.00;1.83;;;23.70;42.60;;;;;;5063909;28;20537;-50
2023/06/01 07:52:32;;;;;;;2.90;1.95;;;23.70;42.50;;;;;;5053693;28;20175;-54
2023/06/01 07:54:57;;;;;;;1.63;1.50;;;23.70;42.20;;;;;;5068900;28;20028;-54
2023/06/01 07:57:23;;;;;;;2.42;1.85;;;23.70;42.10;;;;;;5064201;28;20032;-53
2023/06/01 07:59:49;;;;;;;2.42;1.77;;;23.70;42.40;;;;;;5055024;28;20086;-48
2023/06/01 08:02:15;;;;;;;3.55;2.15;;;23.70;43.20;;;;;;5050686;28;20491;-55
2023/06/01 08:04:40;;;;;;;2.35;2.00;;;23.70;42.80;;;;;;5065952;28;20058;-51
2023/06/01 08:07:07;;;;;;;3.20;1.98;;;23.70;42.50;;;;;;5061118;28;20032;-52
2023/06/01 08:09:33;;;;;;;2.65;1.65;;;23.70;42.10;;;;;;5050783;28;20031;-49
2023/06/01 08:11:58;;;;;;;2.85;2.10;;;23.80;42.10;;;;;;5057913;28;20043;-53
2023/06/01 08:14:24;;;;;;;4.60;2.20;;;23.80;42.40;;;;;;5039459;28;20044;-55
2023/06/01 08:16:53;;;;;;;2.63;2.35;;;23.80;42.80;;;;;;5058370;28;20486;-54
2023/06/01 08:19:18;;;;;;;2.50;1.60;;;23.80;42.40;;;;;;5045741;28;20427;-50
2023/06/01 08:21:45;;;;;;;2.88;1.90;;;23.80;42.30;;;;;;5055191;28;20034;-53
2023/06/01 08:24:12;;;;;;;4.43;1.90;;;23.80;42.20;;;;;;5058281;28;20056;-52
2023/06/01 08:26:38;;;;;;;2.97;2.13;;;23.80;42.70;;;;;;5051770;28;23091;-55
2023/06/01 08:29:04;;;;;;;2.80;1.90;;;23.80;42.70;;;;;;5059687;28;20071;-55
2023/06/01 08:31:29;;;;;;;3.53;2.10;;;23.80;42.90;;;;;;5051740;28;20024;-53
2023/06/01 08:33:55;;;;;;;3.85;2.47;;;23.80;43.20;;;;;;5050597;28;20032;-51
2023/06/01 08:36:21;;;;;;;2.15;1.92;;;23.80;42.80;;;;;;5055485;28;20024;-56
2023/06/01 08:38:48;;;;;;;2.75;1.80;;;23.80;42.10;;;;;;5061533;28;20827;-54
2023/06/01 08:41:20;;;;;;;4.47;2.15;;;23.80;41.90;;;;;;5060948;28;20044;-53
2023/06/01 08:43:55;;;;;;;3.53;2.00;;;23.70;41.60;;;;;;5062729;28;20028;-57
2023/06/01 08:46:22;;;;;;;4.20;2.10;;;23.70;41.30;;;;;;5062339;28;20071;-51
2023/06/01 08:48:53;;;;;;;3.33;2.03;;;23.70;41.10;;;;;;5052379;28;20039;-54
2023/06/01 08:51:20;;;;;;;;;;;23.60;41.60;;;;;;5051176;28;21783;-53
2023/06/01 08:53:47;;;;;;;2.22;1.80;;;23.60;41.80;;;;;;5051578;28;20266;-52
2023/06/01 08:56:13;;;;;;;3.65;2.40;;;23.60;41.70;;;;;;5052932;28;20593;-52
2023/06/01 08:58:40;;;;;;;3.17;2.10;;;23.50;41.50;;;;;;5054587;28;20028;-56
2023/06/01 09:01:06;;;;;;;3.88;2.10;;;23.50;41.50;;;;;;5046415;28;20059;-53
2023/06/01 09:03:32;;;;;;;2.80;2.00;;;23.50;41.90;;;;;;5048731;28;20636;-53
2023/06/01 09:05:58;;;;;;;2.92;2.35;;;23.40;41.90;;;;;;5046902;28;20039;-52
2023/06/01 09:08:24;;;;;;;2.35;2.00;;;23.40;41.90;;;;;;5057221;28;20036;-55
2023/06/01 09:10:50;;;;;;;2.55;1.77;;;23.30;41.90;;;;;;5057349;28;20090;-53
2023/06/01 09:13:34;;;;;;;9.48;2.40;;;23.30;42.00;;;;;;5059430;28;20040;-52
2023/06/01 09:16:00;;;;;;;2.45;2.25;;;23.30;42.10;;;;;;5057817;28;20032;-54
2023/06/01 09:18:25;;;;;;;5.47;2.50;;;23.30;42.30;;;;;;5047708;28;20502;-55
2023/06/01 09:20:53;;;;;;;3.83;2.40;;;23.20;42.40;;;;;;5059624;28;20035;-56
2023/06/01 09:23:27;;;;;;;3.20;2.10;;;23.30;42.90;;;;;;5063469;28;20020;-54
2023/06/01 09:26:10;;;;;;;3.40;2.17;;;23.30;42.80;;;;;;5063730;28;20031;-56
2023/06/01 09:28:55;;;;;;;2.67;2.13;;;23.20;42.50;;;;;;5059538;28;20036;-57
2023/06/01 09:31:47;;;;;;;2.47;2.25;;;23.20;42.60;;;;;;5050790;28;20028;-52
2023/06/01 09:34:19;;;;;;;3.10;2.40;;;23.20;42.70;;;;;;5033270;28;20043;-51
2023/06/01 09:36:55;;;;;;;3.92;2.00;;;23.20;42.50;;;;;;5061930;28;20047;-55
2023/06/01 09:39:25;;;;;;;2.70;2.28;;;23.10;42.30;;;;;;5058305;28;21426;-55
2023/06/01 09:41:55;;;;;;;3.50;2.03;;;23.10;42.60;;;;;;5059181;28;20060;-53
2023/06/01 09:44:29;;;;;;;3.97;1.92;;;23.10;42.60;;;;;;5060238;28;20460;-59
2023/06/01 09:47:01;;;;;;;2.35;2.15;;;23.10;42.60;;;;;;5061169;28;20047;-56
2023/06/01 09:49:29;;;;;;;2.17;1.98;;;23.10;43.20;;;;;;5053271;28;20024;-51
2023/06/01 09:52:03;;;;;;;2.47;2.20;;;23.10;43.00;;;;;;5050729;28;21284;-55
2023/06/01 09:54:30;;;;;;;4.22;2.22;;;23.10;43.10;;;;;;5058268;28;20070;-55
2023/06/01 09:56:58;;;;;;;3.40;2.00;;;23.10;43.30;;;;;;5054885;28;20496;-55
2023/06/01 09:59:25;;;;;;;3.25;1.75;;;23.10;43.40;;;;;;5062455;28;20024;-56
2023/06/01 10:01:53;;;;;;;3.00;2.10;;;23.10;43.50;;;;;;5053954;28;20032;-54
2023/06/01 10:04:23;;;;;;;2.60;1.98;;;23.20;43.40;;;;;;5048960;28;20028;-55
2023/06/01 10:06:53;;;;;;;2.22;2.03;;;23.10;43.40;;;;;;5041379;28;20135;-58
2023/06/01 10:09:21;;;;;;;3.92;2.30;;;23.10;43.50;;;;;;5057685;28;20368;-59
2023/06/01 10:11:48;;;;;;;2.85;2.35;;;23.10;43.60;;;;;;5059041;28;20038;-52
2023/06/01 10:14:14;;;;;;;5.38;2.55;;;23.10;43.40;;;;;;5063107;28;20107;-57
2023/06/01 10:16:41;;;;;;;2.63;2.08;;;23.10;43.60;;;;;;5048631;28;20031;-52
2023/06/01 10:19:11;;;;;;;2.47;2.20;;;23.10;43.70;;;;;;5036164;28;20119;-50
2023/06/01 10:21:39;;;;;;;5.05;2.22;;;23.10;43.70;;;;;;5043045;28;20032;-54
2023/06/01 10:24:06;;;;;;;2.90;2.35;;;23.10;43.80;;;;;;5051672;28;20063;-53
2023/06/01 10:26:41;;;;;;;3.33;2.40;;;23.10;43.50;;;;;;5051214;28;20847;-57
2023/06/01 10:29:08;;;;;;;2.95;2.10;;;23.10;43.60;;;;;;5048831;28;20081;-59
2023/06/01 10:31:41;;;;;;;4.13;2.40;;;23.10;43.80;;;;;;5058517;28;20107;-58
2023/06/01 10:34:09;;;;;;;3.50;2.20;;;23.10;43.70;;;;;;5070589;28;20024;-54
2023/06/01 10:36:53;;;;;;;2.38;2.17;;;23.10;43.30;;;;;;5058643;28;20154;-56
2023/06/01 10:39:45;;;;;;;4.30;2.35;;;23.10;43.60;;;;;;5063204;28;20028;-56
2023/06/01 10:42:13;;;;;;;2.95;1.80;;;23.00;43.50;;;;;;5050446;28;20119;-53
2023/06/01 10:44:40;;;;;;;2.20;2.00;;;23.00;44.20;;;;;;5051529;28;20056;-54
2023/06/01 10:47:35;;;;;;;4.50;2.28;;;23.00;44.20;;;;;;5054201;28;20197;-56
2023/06/01 10:50:00;;;;;;;2.25;1.95;;;23.00;43.30;;;;;;5045281;28;20711;-53
2023/06/01 10:52:34;;;;;;;3.22;1.85;;;23.00;42.50;;;;;;5030093;28;20125;-48
2023/06/01 10:55:05;;;;;;;3.15;2.10;;;23.00;42.10;;;;;;5034209;28;20486;-52
2023/06/01 10:57:32;;;;;;;4.22;2.30;;;23.00;42.30;;;;;;5056816;28;20038;-53
2023/06/01 11:00:10;;;;;;;3.65;2.10;;;23.00;42.50;;;;;;5048433;28;20024;-53
2023/06/01 11:02:59;;;;;;;2.78;2.10;;;23.00;42.60;;;;;;5036407;28;20200;-53
2023/06/01 11:05:47;;;;;;;4.95;2.08;;;23.00;42.40;;;;;;5046100;28;21332;-53
2023/06/01 11:08:22;;;;;;;2.42;2.10;;;23.00;42.30;;;;;;5059148;28;20196;-52
2023/06/01 11:10:53;;;;;;;2.65;2.10;;;23.00;42.20;;;;;;5052286;28;20111;-56
2023/06/01 11:13:21;;;;;;;2.58;2.20;;;22.90;42.30;;;;;;5054901;28;20033;-55
2023/06/01 11:16:22;;;;;;;2.35;2.15;;;23.00;42.30;;;;;;5054698;28;20036;-54
2023/06/01 11:18:59;;;;;;;2.78;2.17;;;22.90;41.50;;;;;;5055121;28;20139;-58
2023/06/01 11:21:24;;;;;;;3.90;2.20;;;22.90;41.40;;;;;;5061379;28;20028;-53
2023/06/01 11:23:51;;;;;;;2.28;1.90;;;22.90;41.20;;;;;;5049446;28;20032;-55
2023/06/01 11:26:19;;;;;;;3.58;2.17;;;22.90;41.50;;;;;;5056341;28;20506;-52
2023/06/01 11:28:46;;;;;;;3.83;1.98;;;23.00;42.00;;;;;;5064956;28;20028;-52
2023/06/01 11:31:18;;;;;;;2.53;2.28;;;23.00;42.10;;;;;;5062984;28;20020;-55
2023/06/01 11:33:56;;;;;;;2.30;1.88;;;23.00;41.90;;;;;;5048246;28;20031;-54
2023/06/01 11:36:26;;;;;;;3.65;2.35;;;23.00;42.40;;;;;;5060766;28;20032;-55
2023/06/01 11:38:53;;;;;;;3.10;2.35;;;23.00;42.20;;;;;;5065875;28;20479;-54
2023/06/01 11:41:26;;;;;;;3.65;1.80;;;23.00;42.70;;;;;;5048986;28;20044;-54
2023/06/01 11:43:56;;;;;;;3.65;2.17;;;23.00;42.10;;;;;;5054711;28;20200;-51
2023/06/01 11:46:22;;;;;;;4.80;2.22;;;23.00;42.00;;;;;;5060871;28;20064;-53
2023/06/01 11:49:08;;;;;;;4.15;2.05;;;23.00;42.30;;;;;;5064563;28;20038;-56
2023/06/01 11:51:42;;;;;;;3.00;2.15;;;23.00;42.40;;;;;;5051256;28;20042;-57
2023/06/01 11:54:08;;;;;;;3.13;2.00;;;23.00;42.50;;;;;;5047821;28;20517;-52
2023/06/01 11:56:36;;;;;;;3.03;2.20;;;23.00;43.00;;;;;;5045883;28;20113;-52
2023/06/01 11:59:08;;;;;;;3.30;2.05;;;23.00;42.40;;;;;;5042884;28;20131;-52
2023/06/01 12:01:36;;;;;;;3.15;2.03;;;23.10;42.40;;;;;;5052530;28;20036;-55
2023/06/01 12:04:04;;;;;;;2.80;1.95;;;23.10;42.60;;;;;;5042152;28;20039;-52
2023/06/01 12:06:30;;;;;;;4.40;2.45;;;23.10;42.80;;;;;;5048742;28;20035;-53
2023/06/01 12:08:57;;;;;;;2.45;2.10;;;23.10;42.80;;;;;;5050148;28;20551;-52
2023/06/01 12:11:28;;;;;;;2.25;2.05;;;23.10;43.20;;;;;;5058761;28;20032;-55
2023/06/01 12:13:55;;;;;;;2.72;2.10;;;23.10;43.10;;;;;;5044589;28;20020;-53
2023/06/01 12:16:22;;;;;;;4.03;2.20;;;23.10;43.00;;;;;;5063379;28;20028;-53
2023/06/01 12:18:48;;;;;;;7.57;2.67;;;23.10;42.60;;;;;;5062815;28;20064;-54
2023/06/01 12:21:16;;;;;;;2.58;2.10;;;23.10;42.60;;;;;;5046970;28;20034;-54
2023/06/01 12:23:42;;;;;;;4.88;2.17;;;23.10;42.60;;;;;;5053742;28;20050;-51
2023/06/01 12:26:08;;;;;;;3.63;2.15;;;23.10;42.50;;;;;;5058206;28;20028;-54
2023/06/01 12:28:54;;;;;;;2.35;2.00;;;23.10;42.80;;;;;;5056384;28;20039;-54
2023/06/01 12:31:21;;;;;;;4.78;2.35;;;23.10;43.00;;;;;;5054150;28;20601;-54
2023/06/01 12:33:50;;;;;;;2.67;2.28;;;23.10;42.80;;;;;;5057548;28;20135;-59
2023/06/01 12:36:48;;;;;;;3.47;2.28;;;23.10;42.70;;;;;;5051484;28;20036;-54
2023/06/01 12:39:15;;;;;;;5.03;2.40;;;23.10;43.10;;;;;;5017744;28;20095;-56
2023/06/01 12:41:48;;;;;;;2.63;2.13;;;23.10;43.70;;;;;;5051429;28;20095;-54
2023/06/01 12:44:20;;;;;;;3.38;2.10;;;23.10;43.30;;;;;;5062400;28;20411;-52
2023/06/01 12:46:45;;;;;;;4.68;2.40;;;23.10;43.20;;;;;;5057943;28;20062;-51
2023/06/01 12:49:17;;;;;;;11.25;9.05;;;23.10;43.10;;;;;;5050254;28;20032;-54
2023/06/01 12:51:43;;;;;;;6.53;3.90;;;23.10;42.90;;;;;;5050784;28;20032;-50
2023/06/01 12:54:09;;;;;;;4.43;2.97;;;23.10;43.00;;;;;;5050591;28;20036;-55